createdAt,value
2023-03-19T00:01:39.118Z,62.73
2023-03-19T00:04:06.306Z,62.76
2023-03-19T00:06:33.350Z,63.15
2023-03-19T00:09:01.658Z,63.56
2023-03-19T00:11:28.730Z,63.96
2023-03-19T00:13:55.815Z,64.89
2023-03-19T00:16:22.744Z,64.46
2023-03-19T00:18:50.077Z,64.31
2023-03-19T00:21:17.337Z,64.36
2023-03-19T00:23:44.350Z,64.33
2023-03-19T00:26:12.698Z,64.40
2023-03-19T00:28:40.449Z,64.23
2023-03-19T00:31:09.204Z,64.71
2023-03-19T00:33:36.237Z,65.44
2023-03-19T00:36:03.658Z,65.32
2023-03-19T00:38:30.648Z,65.14
2023-03-19T00:40:57.582Z,64.53
2023-03-19T00:43:27.083Z,65.34
2023-03-19T00:45:54.215Z,65.72
2023-03-19T00:48:21.513Z,65.82
2023-03-19T00:50:48.548Z,65.71
2023-03-19T00:53:15.915Z,64.90
2023-03-19T00:55:42.994Z,64.96
2023-03-19T00:58:10.696Z,65.32
2023-03-19T01:00:39.103Z,65.08
2023-03-19T01:03:06.563Z,65.51
2023-03-19T01:05:35.125Z,65.83
2023-03-19T01:08:02.798Z,66.23
2023-03-19T01:10:30.974Z,66.92
2023-03-19T01:12:57.903Z,66.89
2023-03-19T01:15:25.014Z,66.43
2023-03-19T01:17:53.501Z,66.80
2023-03-19T01:20:24.071Z,66.13
2023-03-19T01:22:51.652Z,66.53
2023-03-19T01:25:18.680Z,66.32
2023-03-19T01:27:55.666Z,66.61
2023-03-19T01:30:22.709Z,66.60
2023-03-19T01:33:09.608Z,67.21
2023-03-19T01:35:58.072Z,67.16
2023-03-19T01:38:27.511Z,67.02
2023-03-19T01:41:00.036Z,67.39
2023-03-19T01:43:28.795Z,67.40
2023-03-19T01:46:24.943Z,67.28
2023-03-19T01:49:13.708Z,67.69
2023-03-19T01:51:46.174Z,67.84
2023-03-19T01:54:32.781Z,67.48
2023-03-19T01:57:18.970Z,67.19
2023-03-19T01:59:57.461Z,67.29
2023-03-19T02:02:44.027Z,67.43
2023-03-19T02:05:36.802Z,68.08
2023-03-19T02:08:09.086Z,67.80
2023-03-19T02:10:36.635Z,68.06
2023-03-19T02:13:03.848Z,68.14
2023-03-19T02:15:31.044Z,68.26
2023-03-19T02:17:58.490Z,67.76
2023-03-19T02:20:27.879Z,67.36
2023-03-19T02:23:04.814Z,67.53
2023-03-19T02:25:37.830Z,67.34
2023-03-19T02:28:07.807Z,66.89
2023-03-19T02:30:35.290Z,67.01
2023-03-19T02:33:07.971Z,68.03
2023-03-19T02:35:35.859Z,67.83
2023-03-19T02:38:03.688Z,67.51
2023-03-19T02:40:34.984Z,67.87
2023-03-19T02:43:02.116Z,67.49
2023-03-19T02:45:32.192Z,67.64
2023-03-19T02:48:00.172Z,66.75
2023-03-19T02:50:27.521Z,67.83
2023-03-19T02:52:54.455Z,67.39
2023-03-19T02:55:22.270Z,67.55
2023-03-19T02:57:49.287Z,68.06
2023-03-19T03:00:20.941Z,67.87
2023-03-19T03:02:49.307Z,68.20
2023-03-19T03:05:16.732Z,67.56
2023-03-19T03:07:44.986Z,67.90
2023-03-19T03:10:12.630Z,68.13
2023-03-19T03:12:39.722Z,67.42
2023-03-19T03:15:08.610Z,67.04
2023-03-19T03:17:37.241Z,67.03
2023-03-19T03:20:07.540Z,67.12
2023-03-19T03:22:34.492Z,67.12
2023-03-19T03:25:01.507Z,67.20
2023-03-19T03:27:30.088Z,66.84
2023-03-19T03:29:57.221Z,67.33
2023-03-19T03:32:24.504Z,67.85
2023-03-19T03:34:51.499Z,67.21
2023-03-19T03:37:19.941Z,67.54
2023-03-19T03:39:46.881Z,68.26
2023-03-19T03:42:13.809Z,67.96
2023-03-19T03:44:41.638Z,67.93
2023-03-19T03:47:09.200Z,67.62
2023-03-19T03:49:36.193Z,67.99
2023-03-19T03:52:03.262Z,68.17
2023-03-19T03:54:32.257Z,67.62
2023-03-19T03:57:01.390Z,67.77
2023-03-19T03:59:29.988Z,68.48
2023-03-19T04:01:57.037Z,68.77
2023-03-19T04:04:24.151Z,68.63
2023-03-19T04:06:51.088Z,68.87
2023-03-19T04:09:46.474Z,68.62
2023-03-19T04:12:13.650Z,69.51
2023-03-19T04:14:42.130Z,69.08
2023-03-19T04:17:10.033Z,69.45
2023-03-19T04:19:38.265Z,69.87
2023-03-19T04:22:05.474Z,70.48
2023-03-19T04:24:33.372Z,69.93
2023-03-19T04:27:02.467Z,69.83
2023-03-19T04:29:29.675Z,70.06
2023-03-19T04:31:57.115Z,70.07
2023-03-19T04:34:24.891Z,70.62
2023-03-19T04:36:52.150Z,70.15
2023-03-19T04:39:19.767Z,70.67
2023-03-19T04:41:47.606Z,70.63
2023-03-19T04:44:42.176Z,70.56
2023-03-19T04:47:10.646Z,70.82
2023-03-19T04:49:48.977Z,71.03
2023-03-19T04:52:18.940Z,70.35
2023-03-19T04:54:46.114Z,70.13
2023-03-19T04:57:13.466Z,70.03
2023-03-19T04:59:43.222Z,70.05
2023-03-19T05:02:13.173Z,70.16
2023-03-19T05:04:41.490Z,70.06
2023-03-19T05:07:12.187Z,69.56
2023-03-19T05:09:40.598Z,70.41
2023-03-19T05:12:08.547Z,69.14
2023-03-19T05:14:42.933Z,69.60
2023-03-19T05:17:29.189Z,69.18
2023-03-19T05:20:12.888Z,69.14
2023-03-19T05:22:46.759Z,68.42
2023-03-19T05:25:15.321Z,69.22
2023-03-19T05:27:43.202Z,69.02
2023-03-19T05:30:18.499Z,68.56
2023-03-19T05:32:51.312Z,67.20
2023-03-19T05:35:31.999Z,67.00
2023-03-19T05:38:01.113Z,66.67
2023-03-19T05:40:28.317Z,66.21
2023-03-19T05:42:57.036Z,66.18
2023-03-19T05:45:28.565Z,65.75
2023-03-19T05:47:59.161Z,65.17
2023-03-19T05:50:26.384Z,64.31
2023-03-19T05:53:09.386Z,64.31
2023-03-19T05:55:39.265Z,63.49
2023-03-19T05:58:09.050Z,62.40
2023-03-19T06:00:37.748Z,61.77
2023-03-19T06:03:04.902Z,62.16
2023-03-19T06:05:38.773Z,62.06
2023-03-19T06:08:18.779Z,61.41
2023-03-19T06:10:55.716Z,61.25
2023-03-19T06:13:22.965Z,60.61
2023-03-19T06:15:58.042Z,60.37
2023-03-19T06:18:33.516Z,60.29
2023-03-19T06:21:05.949Z,59.69
2023-03-19T06:23:34.251Z,60.64
2023-03-19T06:26:03.397Z,60.29
2023-03-19T06:28:35.321Z,59.81
2023-03-19T06:31:04.729Z,59.84
2023-03-19T06:33:57.736Z,59.00
2023-03-19T06:36:30.639Z,59.32
2023-03-19T06:38:57.830Z,58.65
2023-03-19T06:41:27.852Z,58.66
2023-03-19T06:44:02.421Z,57.71
2023-03-19T06:46:31.433Z,57.49
2023-03-19T06:48:58.100Z,57.17
2023-03-19T06:51:27.815Z,56.25
2023-03-19T06:53:55.104Z,56.00
2023-03-19T06:56:22.200Z,55.78
2023-03-19T06:58:49.220Z,55.47
2023-03-19T07:01:16.744Z,55.64
2023-03-19T07:03:45.338Z,54.43
2023-03-19T07:06:12.295Z,53.75
2023-03-19T07:08:39.409Z,52.63
2023-03-19T07:11:07.297Z,52.44
2023-03-19T07:13:34.608Z,51.51
2023-03-19T07:16:01.820Z,49.78
2023-03-19T07:18:28.741Z,49.84
2023-03-19T07:20:57.174Z,49.61
2023-03-19T07:23:24.195Z,50.21
2023-03-19T07:25:51.159Z,49.46
2023-03-19T07:28:18.188Z,49.12
2023-03-19T07:30:45.455Z,49.38
2023-03-19T07:33:13.364Z,48.27
2023-03-19T07:35:40.602Z,47.85
2023-03-19T07:38:08.928Z,47.79
2023-03-19T07:40:36.246Z,47.81
2023-03-19T07:43:03.959Z,47.30
2023-03-19T07:45:31.240Z,46.65
2023-03-19T07:47:58.304Z,45.62
2023-03-19T07:50:25.241Z,44.31
2023-03-19T07:52:52.153Z,44.71
2023-03-19T07:55:21.309Z,44.43
2023-03-19T07:57:48.440Z,44.57
2023-03-19T08:00:17.042Z,43.50
2023-03-19T08:02:45.363Z,42.70
2023-03-19T08:05:12.491Z,41.61
2023-03-19T08:07:39.419Z,41.88
2023-03-19T08:10:08.193Z,41.50
2023-03-19T08:12:41.017Z,41.21
2023-03-19T08:15:10.135Z,41.56
2023-03-19T08:17:38.400Z,39.85
2023-03-19T08:20:08.293Z,38.95
2023-03-19T08:22:36.091Z,38.61
2023-03-19T08:25:03.241Z,38.97
2023-03-19T08:27:31.531Z,39.56
2023-03-19T08:29:59.834Z,38.57
2023-03-19T08:32:27.106Z,37.46
2023-03-19T08:34:54.035Z,38.00
2023-03-19T08:37:21.058Z,35.98
2023-03-19T08:39:50.998Z,35.74
2023-03-19T08:42:17.988Z,36.17
2023-03-19T08:44:44.903Z,35.73
2023-03-19T08:47:13.532Z,35.85
2023-03-19T08:49:40.874Z,34.91
2023-03-19T08:52:08.752Z,34.34
2023-03-19T08:54:36.982Z,33.91
2023-03-19T08:57:04.161Z,34.49
2023-03-19T08:59:34.099Z,34.94
2023-03-19T09:02:01.789Z,32.98
2023-03-19T09:04:30.487Z,32.25
2023-03-19T09:06:57.453Z,33.08
2023-03-19T09:09:25.610Z,32.78
2023-03-19T09:11:52.544Z,32.84
2023-03-19T09:14:23.096Z,30.93
2023-03-19T09:16:50.402Z,30.34
2023-03-19T09:19:17.472Z,38.34
2023-03-19T09:21:46.395Z,37.36
2023-03-19T09:24:13.483Z,30.29
2023-03-19T09:26:40.377Z,28.67
2023-03-19T09:29:07.309Z,28.75
2023-03-19T09:31:34.389Z,28.73
2023-03-19T09:34:01.558Z,28.93
2023-03-19T09:36:28.497Z,27.95
2023-03-19T09:38:57.622Z,27.99
2023-03-19T09:41:29.638Z,28.32
2023-03-19T09:43:59.962Z,26.98
2023-03-19T09:46:39.104Z,27.29
2023-03-19T09:49:12.514Z,26.19
2023-03-19T09:51:45.114Z,26.85
2023-03-19T09:54:35.666Z,26.63
2023-03-19T09:57:02.758Z,26.46
2023-03-19T09:59:30.707Z,25.90
2023-03-19T10:02:02.650Z,25.82
2023-03-19T10:04:44.531Z,25.39
2023-03-19T10:07:26.011Z,25.22
2023-03-19T10:10:09.189Z,25.95
2023-03-19T10:12:48.544Z,24.27
2023-03-19T10:15:22.181Z,23.74
2023-03-19T10:17:59.440Z,24.41
2023-03-19T10:20:33.655Z,23.77
2023-03-19T10:23:04.446Z,25.40
2023-03-19T10:25:34.080Z,24.94
2023-03-19T10:28:11.606Z,23.89
2023-03-19T10:30:38.644Z,24.02
2023-03-19T10:33:15.480Z,24.17
2023-03-19T10:35:44.954Z,23.33
2023-03-19T10:38:20.872Z,23.35
2023-03-19T10:41:00.878Z,22.75
2023-03-19T10:43:27.926Z,22.92
2023-03-19T10:45:57.482Z,23.23
2023-03-19T10:48:28.108Z,21.79
2023-03-19T10:50:58.169Z,22.64
2023-03-19T10:53:32.690Z,22.73
2023-03-19T10:56:04.109Z,21.20
2023-03-19T10:58:32.891Z,22.19
2023-03-19T11:01:05.450Z,21.88
2023-03-19T11:03:33.979Z,21.73
2023-03-19T11:06:16.224Z,21.68
2023-03-19T11:08:43.675Z,20.52
2023-03-19T11:11:25.218Z,20.43
2023-03-19T11:13:52.171Z,21.42
2023-03-19T11:16:19.258Z,21.91
2023-03-19T11:18:49.697Z,21.33
2023-03-19T11:21:25.896Z,21.21
2023-03-19T11:23:54.269Z,19.51
2023-03-19T11:26:24.679Z,20.22
2023-03-19T11:28:53.112Z,19.83
2023-03-19T11:31:25.536Z,19.38
2023-03-19T11:34:00.480Z,19.39
2023-03-19T11:36:29.789Z,19.27
2023-03-19T11:39:17.752Z,19.68
2023-03-19T11:41:53.251Z,19.92
2023-03-19T11:44:26.159Z,19.03
2023-03-19T11:46:58.204Z,19.63
2023-03-19T11:49:37.615Z,19.04
2023-03-19T11:52:11.152Z,18.48
2023-03-19T11:54:45.017Z,18.59
2023-03-19T11:57:17.512Z,19.69
2023-03-19T11:59:59.910Z,18.75
2023-03-19T12:02:37.954Z,19.85
2023-03-19T12:05:20.453Z,19.76
2023-03-19T12:07:56.781Z,19.44
2023-03-19T12:10:30.327Z,19.80
2023-03-19T12:13:07.251Z,19.75
2023-03-19T12:15:39.605Z,19.01
2023-03-19T12:18:13.544Z,18.88
2023-03-19T12:20:50.523Z,18.78
2023-03-19T12:23:27.633Z,17.96
2023-03-19T12:26:05.144Z,18.41
2023-03-19T12:28:34.565Z,18.02
2023-03-19T12:31:31.125Z,18.44
2023-03-19T12:34:10.181Z,18.21
2023-03-19T12:36:40.073Z,19.04
2023-03-19T12:39:11.333Z,18.56
2023-03-19T12:41:41.742Z,19.00
2023-03-19T12:44:11.930Z,19.07
2023-03-19T12:46:43.625Z,18.90
2023-03-19T12:49:15.594Z,18.85
2023-03-19T12:51:45.861Z,18.50
2023-03-19T12:54:14.793Z,18.81
2023-03-19T12:56:47.521Z,17.79
2023-03-19T12:59:25.030Z,17.37
2023-03-19T13:01:57.224Z,17.80
2023-03-19T13:04:26.621Z,17.38
2023-03-19T13:06:56.794Z,17.79
2023-03-19T13:09:29.123Z,18.29
2023-03-19T13:12:00.467Z,18.52
2023-03-19T13:14:33.752Z,17.94
2023-03-19T13:17:08.879Z,17.42
2023-03-19T13:19:44.511Z,18.00
2023-03-19T13:22:14.190Z,17.25
2023-03-19T13:24:44.431Z,17.74
2023-03-19T13:27:14.419Z,17.41
2023-03-19T13:29:54.206Z,18.48
2023-03-19T13:32:35.948Z,18.17
2023-03-19T13:35:14.509Z,17.66
2023-03-19T13:37:42.280Z,17.62
2023-03-19T13:40:25.184Z,16.84
2023-03-19T13:42:57.256Z,17.92
2023-03-19T13:45:30.860Z,17.19
2023-03-19T13:48:35.158Z,18.13
2023-03-19T13:51:04.222Z,17.77
2023-03-19T13:53:37.952Z,17.25
2023-03-19T13:56:15.916Z,17.70
2023-03-19T13:58:54.126Z,17.40
2023-03-19T14:01:41.778Z,17.69
2023-03-19T14:04:19.199Z,17.37
2023-03-19T14:06:47.991Z,17.61
2023-03-19T14:09:34.747Z,17.80
2023-03-19T14:12:12.855Z,17.27
2023-03-19T14:14:41.803Z,17.29
2023-03-19T14:17:14.729Z,16.97
2023-03-19T14:19:43.300Z,17.71
2023-03-19T14:22:19.661Z,18.34
2023-03-19T14:24:57.006Z,18.24
2023-03-19T14:27:30.536Z,17.39
2023-03-19T14:30:00.572Z,17.69
2023-03-19T14:32:36.586Z,17.36
2023-03-19T14:35:07.428Z,17.11
2023-03-19T14:37:45.179Z,18.30
2023-03-19T14:40:16.135Z,17.96
2023-03-19T14:42:56.428Z,18.41
2023-03-19T14:45:36.109Z,17.93
2023-03-19T14:48:26.185Z,18.61
2023-03-19T14:51:41.697Z,18.41
2023-03-19T14:54:21.582Z,18.27
2023-03-19T14:56:48.891Z,18.46
2023-03-19T14:59:16.090Z,17.89
2023-03-19T15:01:48.351Z,18.15
2023-03-19T15:04:16.557Z,19.60
2023-03-19T15:06:53.297Z,18.99
2023-03-19T15:09:27.216Z,19.80
2023-03-19T15:12:26.052Z,19.42
2023-03-19T15:15:09.806Z,18.90
2023-03-19T15:17:39.761Z,19.34
2023-03-19T15:20:16.577Z,18.87
2023-03-19T15:22:44.362Z,19.88
2023-03-19T15:25:15.252Z,20.53
2023-03-19T15:27:42.725Z,21.21
2023-03-19T15:30:21.528Z,21.92
2023-03-19T15:33:02.871Z,22.64
2023-03-19T15:35:36.125Z,22.84
2023-03-19T15:38:08.109Z,23.46
2023-03-19T15:40:37.638Z,24.16
2023-03-19T15:43:04.891Z,24.49
2023-03-19T15:45:33.915Z,25.17
2023-03-19T15:48:04.697Z,25.97
2023-03-19T15:50:33.789Z,26.83
2023-03-19T15:53:03.459Z,28.16
2023-03-19T15:55:30.836Z,29.08
2023-03-19T15:58:04.474Z,29.84
2023-03-19T16:00:31.559Z,31.05
2023-03-19T16:02:58.607Z,32.25
2023-03-19T16:05:26.705Z,33.35
2023-03-19T16:07:57.506Z,33.91
2023-03-19T16:10:33.076Z,34.73
2023-03-19T16:13:04.206Z,34.37
2023-03-19T16:15:34.644Z,34.92
2023-03-19T16:18:26.974Z,34.75
2023-03-19T16:21:04.135Z,35.20
2023-03-19T16:23:32.469Z,35.73
2023-03-19T16:26:03.656Z,36.05
2023-03-19T16:28:32.018Z,36.51
2023-03-19T16:30:59.028Z,36.72
2023-03-19T16:33:27.228Z,36.60
2023-03-19T16:35:54.299Z,37.91
2023-03-19T16:38:24.033Z,37.30
2023-03-19T16:41:16.692Z,38.15
2023-03-19T16:43:46.703Z,38.19
2023-03-19T16:46:16.696Z,38.07
2023-03-19T16:48:43.937Z,39.62
2023-03-19T16:51:15.564Z,40.15
2023-03-19T16:53:43.865Z,40.59
2023-03-19T16:56:13.712Z,40.27
2023-03-19T16:58:42.719Z,40.54
2023-03-19T17:01:17.134Z,41.18
2023-03-19T17:03:45.128Z,41.23
2023-03-19T17:06:12.508Z,42.04
2023-03-19T17:08:40.026Z,42.43
2023-03-19T17:11:07.823Z,42.81
2023-03-19T17:13:36.601Z,42.59
2023-03-19T17:16:06.753Z,43.50
2023-03-19T17:18:36.610Z,44.06
2023-03-19T17:21:06.864Z,44.72
2023-03-19T17:23:34.662Z,44.68
2023-03-19T17:26:03.105Z,44.49
2023-03-19T17:28:32.496Z,45.95
2023-03-19T17:30:59.547Z,46.44
2023-03-19T17:33:27.959Z,46.78
2023-03-19T17:35:58.568Z,47.22
2023-03-19T17:38:29.226Z,46.65
2023-03-19T17:40:56.206Z,45.60
2023-03-19T17:43:23.164Z,45.35
2023-03-19T17:45:50.343Z,45.71
2023-03-19T17:48:19.847Z,46.26
2023-03-19T17:50:46.852Z,45.61
2023-03-19T17:53:16.885Z,45.61
2023-03-19T17:55:43.847Z,45.22
2023-03-19T17:58:15.844Z,45.72
2023-03-19T18:00:42.842Z,45.65
2023-03-19T18:03:13.744Z,45.54
2023-03-19T18:05:40.842Z,45.49
2023-03-19T18:08:09.709Z,45.97
2023-03-19T18:10:38.073Z,45.75
2023-03-19T18:13:07.359Z,45.79
2023-03-19T18:15:35.164Z,46.25
2023-03-19T18:18:03.954Z,46.03
2023-03-19T18:20:35.585Z,45.89
2023-03-19T18:23:02.858Z,46.29
2023-03-19T18:25:32.295Z,46.13
2023-03-19T18:28:00.889Z,46.68
2023-03-19T18:30:30.159Z,46.31
2023-03-19T18:32:59.807Z,46.31
2023-03-19T18:35:28.351Z,46.82
2023-03-19T18:37:55.623Z,46.63
2023-03-19T18:40:23.989Z,46.85
2023-03-19T18:42:51.123Z,47.16
2023-03-19T18:45:20.043Z,47.10
2023-03-19T18:47:48.419Z,47.40
2023-03-19T18:50:17.938Z,47.31
2023-03-19T18:52:45.347Z,47.31
2023-03-19T18:55:12.869Z,46.91
2023-03-19T18:57:52.423Z,46.90
2023-03-19T19:00:24.523Z,47.69
2023-03-19T19:02:53.016Z,47.33
2023-03-19T19:05:27.570Z,47.13
2023-03-19T19:07:55.913Z,47.91
2023-03-19T19:10:23.446Z,48.14
2023-03-19T19:12:52.627Z,47.74
2023-03-19T19:15:24.375Z,47.78
2023-03-19T19:17:51.863Z,48.15
2023-03-19T19:20:20.988Z,48.15
2023-03-19T19:22:48.763Z,49.41
2023-03-19T19:25:17.542Z,48.42
2023-03-19T19:27:44.444Z,49.83
2023-03-19T19:30:16.348Z,49.27
2023-03-19T19:32:45.367Z,49.95
2023-03-19T19:35:18.259Z,51.42
2023-03-19T19:37:45.382Z,51.73
2023-03-19T19:40:14.388Z,51.97
2023-03-19T19:42:41.946Z,51.63
2023-03-19T19:45:28.148Z,52.06
2023-03-19T19:47:56.962Z,52.46
2023-03-19T19:50:25.386Z,51.87
2023-03-19T19:52:52.754Z,52.08
2023-03-19T19:55:20.390Z,51.87
2023-03-19T19:57:47.622Z,52.98
2023-03-19T20:00:20.403Z,52.37
2023-03-19T20:02:47.331Z,53.18
2023-03-19T20:05:21.882Z,52.81
2023-03-19T20:07:49.864Z,52.57
2023-03-19T20:10:17.212Z,53.19
2023-03-19T20:12:46.014Z,53.73
2023-03-19T20:15:18.274Z,53.02
2023-03-19T20:17:45.817Z,53.44
2023-03-19T20:20:17.866Z,54.23
2023-03-19T20:22:46.431Z,54.71
2023-03-19T20:25:14.464Z,54.86
2023-03-19T20:27:41.865Z,54.74
2023-03-19T20:30:19.916Z,53.75
2023-03-19T20:32:47.663Z,53.28
2023-03-19T20:35:17.114Z,53.44
2023-03-19T20:37:44.235Z,54.11
2023-03-19T20:40:13.607Z,54.50
2023-03-19T20:42:41.420Z,53.97
2023-03-19T20:45:14.654Z,53.99
2023-03-19T20:47:41.615Z,53.90
2023-03-19T20:50:16.481Z,53.68
2023-03-19T20:52:43.514Z,53.91
2023-03-19T20:55:15.525Z,54.90
2023-03-19T20:57:43.248Z,54.51
2023-03-19T21:00:18.300Z,54.50
2023-03-19T21:02:45.302Z,54.95
2023-03-19T21:05:12.781Z,54.99
2023-03-19T21:07:39.774Z,54.47
2023-03-19T21:10:20.233Z,55.29
2023-03-19T21:12:47.325Z,56.32
2023-03-19T21:15:14.774Z,56.21
2023-03-19T21:17:42.250Z,56.11
2023-03-19T21:20:17.422Z,56.37
2023-03-19T21:22:44.345Z,57.25
2023-03-19T21:25:18.641Z,58.12
2023-03-19T21:27:47.685Z,58.54
2023-03-19T21:30:15.555Z,58.62
2023-03-19T21:32:42.520Z,58.61
2023-03-19T21:35:17.710Z,58.44
2023-03-19T21:37:44.771Z,58.42
2023-03-19T21:40:14.853Z,58.75
2023-03-19T21:42:43.482Z,59.16
2023-03-19T21:45:16.372Z,59.09
2023-03-19T21:47:44.497Z,59.27
2023-03-19T21:50:16.979Z,59.91
2023-03-19T21:52:57.810Z,60.42
2023-03-19T21:55:27.444Z,60.56
2023-03-19T21:57:57.475Z,60.79
2023-03-19T22:00:24.883Z,60.77
2023-03-19T22:02:52.157Z,60.74
2023-03-19T22:05:24.637Z,61.23
2023-03-19T22:07:52.306Z,61.69
2023-03-19T22:10:20.234Z,61.67
2023-03-19T22:12:48.388Z,61.34
2023-03-19T22:15:27.634Z,62.17
2023-03-19T22:17:54.692Z,61.97
2023-03-19T22:20:23.404Z,61.71
2023-03-19T22:22:50.982Z,61.47
2023-03-19T22:25:19.013Z,61.58
2023-03-19T22:27:48.079Z,61.93
2023-03-19T22:30:32.982Z,62.31
2023-03-19T22:33:01.283Z,63.04
2023-03-19T22:35:28.766Z,62.41
2023-03-19T22:37:55.973Z,62.62
2023-03-19T22:40:23.135Z,63.13
2023-03-19T22:42:50.246Z,62.14
2023-03-19T22:45:36.867Z,62.04
2023-03-19T22:48:04.585Z,62.46
2023-03-19T22:50:31.979Z,62.67
2023-03-19T22:52:59.242Z,62.66
2023-03-19T22:55:26.395Z,62.83
2023-03-19T22:57:53.351Z,62.79
2023-03-19T23:00:23.789Z,62.68
2023-03-19T23:02:55.449Z,62.32
2023-03-19T23:05:34.272Z,62.61
2023-03-19T23:08:06.220Z,62.51
2023-03-19T23:10:33.597Z,62.10
2023-03-19T23:13:01.138Z,61.97
2023-03-19T23:15:31.105Z,62.61
2023-03-19T23:18:00.150Z,62.53
2023-03-19T23:20:28.743Z,62.32
2023-03-19T23:22:56.517Z,61.99
2023-03-19T23:25:27.401Z,62.58
2023-03-19T23:27:57.265Z,62.65
2023-03-19T23:30:30.285Z,63.35
2023-03-19T23:33:00.710Z,64.18
2023-03-19T23:35:29.883Z,64.50
2023-03-19T23:37:58.038Z,64.67
2023-03-19T23:40:26.451Z,65.28
2023-03-19T23:42:54.625Z,65.08
2023-03-19T23:45:37.080Z,65.53
2023-03-19T23:48:09.988Z,65.98
2023-03-19T23:50:37.208Z,66.14
2023-03-19T23:53:04.252Z,66.77
2023-03-19T23:55:31.761Z,67.05
2023-03-19T23:57:59.279Z,66.46
